sensor_id;sensor_type;location;lat;lon;timestamp;P1;durP1;ratioP1;P2;durP2;ratioP2
20144;SDS011;10233;50.814;6.590;2022-08-21T00:00:39;7.82;;;4.05;;
20144;SDS011;10233;50.814;6.590;2022-08-21T00:01:40;6.53;;;3.60;;
20144;SDS011;10233;50.814;6.590;2022-08-21T00:02:57;8.53;;;3.70;;
20144;SDS011;10233;50.814;6.590;2022-08-21T00:04:04;9.48;;;3.58;;
20144;SDS011;10233;50.814;6.590;2022-08-21T00:05:07;9.32;;;3.72;;
20144;SDS011;10233;50.814;6.590;2022-08-21T00:06:07;8.90;;;3.85;;
20144;SDS011;10233;50.814;6.590;2022-08-21T00:07:08;7.43;;;3.73;;
20144;SDS011;10233;50.814;6.590;2022-08-21T00:08:09;11.70;;;4.35;;
20144;SDS011;10233;50.814;6.590;2022-08-21T00:09:10;5.90;;;3.75;;
20144;SDS011;10233;50.814;6.590;2022-08-21T00:10:11;9.48;;;4.00;;
20144;SDS011;10233;50.814;6.590;2022-08-21T00:11:12;9.50;;;4.20;;
20144;SDS011;10233;50.814;6.590;2022-08-21T00:12:13;8.68;;;4.30;;
20144;SDS011;10233;50.814;6.590;2022-08-21T00:13:14;9.55;;;4.00;;
20144;SDS011;10233;50.814;6.590;2022-08-21T00:14:15;8.90;;;4.00;;
20144;SDS011;10233;50.814;6.590;2022-08-21T00:15:18;9.85;;;3.90;;
20144;SDS011;10233;50.814;6.590;2022-08-21T00:16:21;9.52;;;4.10;;
20144;SDS011;10233;50.814;6.590;2022-08-21T00:17:21;6.87;;;3.80;;
20144;SDS011;10233;50.814;6.590;2022-08-21T00:18:22;6.78;;;3.83;;
20144;SDS011;10233;50.814;6.590;2022-08-21T00:19:22;8.97;;;4.27;;
20144;SDS011;10233;50.814;6.590;2022-08-21T00:20:25;7.00;;;4.00;;
20144;SDS011;10233;50.814;6.590;2022-08-21T00:21:26;8.63;;;4.28;;
20144;SDS011;10233;50.814;6.590;2022-08-21T00:22:26;9.32;;;4.10;;
20144;SDS011;10233;50.814;6.590;2022-08-21T00:23:27;6.70;;;3.63;;
20144;SDS011;10233;50.814;6.590;2022-08-21T00:24:27;8.47;;;4.33;;
20144;SDS011;10233;50.814;6.590;2022-08-21T00:25:27;7.43;;;4.38;;
20144;SDS011;10233;50.814;6.590;2022-08-21T00:26:28;10.20;;;4.40;;
20144;SDS011;10233;50.814;6.590;2022-08-21T00:27:29;9.65;;;4.50;;
20144;SDS011;10233;50.814;6.590;2022-08-21T00:28:30;8.27;;;4.10;;
20144;SDS011;10233;50.814;6.590;2022-08-21T00:29:30;7.53;;;3.90;;
20144;SDS011;10233;50.814;6.590;2022-08-21T00:30:31;12.48;;;4.95;;
20144;SDS011;10233;50.814;6.590;2022-08-21T00:31:32;10.00;;;4.05;;
20144;SDS011;10233;50.814;6.590;2022-08-21T00:32:33;11.43;;;4.35;;
20144;SDS011;10233;50.814;6.590;2022-08-21T00:33:36;8.38;;;4.03;;
20144;SDS011;10233;50.814;6.590;2022-08-21T00:34:37;8.45;;;3.97;;
20144;SDS011;10233;50.814;6.590;2022-08-21T00:35:39;7.37;;;4.07;;
20144;SDS011;10233;50.814;6.590;2022-08-21T00:36:41;10.10;;;3.97;;
20144;SDS011;10233;50.814;6.590;2022-08-21T00:37:42;10.33;;;4.40;;
20144;SDS011;10233;50.814;6.590;2022-08-21T00:38:43;10.20;;;3.83;;
20144;SDS011;10233;50.814;6.590;2022-08-21T00:39:43;12.23;;;4.32;;
20144;SDS011;10233;50.814;6.590;2022-08-21T00:40:47;12.37;;;4.40;;
20144;SDS011;10233;50.814;6.590;2022-08-21T00:41:50;8.02;;;4.22;;
20144;SDS011;10233;50.814;6.590;2022-08-21T00:42:51;8.77;;;4.20;;
20144;SDS011;10233;50.814;6.590;2022-08-21T00:43:52;8.55;;;3.80;;
20144;SDS011;10233;50.814;6.590;2022-08-21T00:44:53;8.05;;;4.07;;
20144;SDS011;10233;50.814;6.590;2022-08-21T00:45:55;7.70;;;4.60;;
20144;SDS011;10233;50.814;6.590;2022-08-21T00:46:56;11.53;;;4.57;;
20144;SDS011;10233;50.814;6.590;2022-08-21T00:47:57;7.22;;;3.90;;
20144;SDS011;10233;50.814;6.590;2022-08-21T00:48:58;8.80;;;4.10;;
20144;SDS011;10233;50.814;6.590;2022-08-21T00:49:58;7.63;;;3.80;;
20144;SDS011;10233;50.814;6.590;2022-08-21T00:51:10;7.50;;;3.72;;
20144;SDS011;10233;50.814;6.590;2022-08-21T00:52:19;9.05;;;4.15;;
20144;SDS011;10233;50.814;6.590;2022-08-21T00:53:24;12.35;;;3.92;;
20144;SDS011;10233;50.814;6.590;2022-08-21T00:54:27;8.38;;;3.90;;
20144;SDS011;10233;50.814;6.590;2022-08-21T00:55:29;8.50;;;3.67;;
20144;SDS011;10233;50.814;6.590;2022-08-21T00:56:31;11.85;;;3.80;;
20144;SDS011;10233;50.814;6.590;2022-08-21T00:57:33;7.82;;;4.07;;
20144;SDS011;10233;50.814;6.590;2022-08-21T00:58:39;10.43;;;4.07;;
20144;SDS011;10233;50.814;6.590;2022-08-21T00:59:41;8.27;;;4.05;;
20144;SDS011;10233;50.814;6.590;2022-08-21T01:00:48;8.55;;;4.07;;
20144;SDS011;10233;50.814;6.590;2022-08-21T01:01:49;8.07;;;3.63;;
20144;SDS011;10233;50.814;6.590;2022-08-21T01:02:50;8.47;;;3.97;;
20144;SDS011;10233;50.814;6.590;2022-08-21T01:03:50;10.32;;;4.15;;
20144;SDS011;10233;50.814;6.590;2022-08-21T01:04:51;9.23;;;3.87;;
20144;SDS011;10233;50.814;6.590;2022-08-21T01:05:52;9.18;;;3.45;;
20144;SDS011;10233;50.814;6.590;2022-08-21T01:06:53;10.32;;;3.83;;
20144;SDS011;10233;50.814;6.590;2022-08-21T01:07:55;7.22;;;3.60;;
20144;SDS011;10233;50.814;6.590;2022-08-21T01:08:57;7.45;;;3.95;;
20144;SDS011;10233;50.814;6.590;2022-08-21T01:09:58;9.27;;;3.73;;
20144;SDS011;10233;50.814;6.590;2022-08-21T01:10:58;5.30;;;3.40;;
20144;SDS011;10233;50.814;6.590;2022-08-21T01:11:59;7.70;;;3.83;;
20144;SDS011;10233;50.814;6.590;2022-08-21T01:13:00;9.27;;;3.78;;
20144;SDS011;10233;50.814;6.590;2022-08-21T01:14:02;5.68;;;3.63;;
20144;SDS011;10233;50.814;6.590;2022-08-21T01:15:03;8.10;;;3.85;;
20144;SDS011;10233;50.814;6.590;2022-08-21T01:16:08;8.75;;;3.92;;
20144;SDS011;10233;50.814;6.590;2022-08-21T01:17:10;7.45;;;3.78;;
20144;SDS011;10233;50.814;6.590;2022-08-21T01:18:14;10.23;;;3.77;;
20144;SDS011;10233;50.814;6.590;2022-08-21T01:19:16;6.72;;;3.58;;
20144;SDS011;10233;50.814;6.590;2022-08-21T01:20:17;7.50;;;3.72;;
20144;SDS011;10233;50.814;6.590;2022-08-21T01:21:19;8.40;;;3.60;;
20144;SDS011;10233;50.814;6.590;2022-08-21T01:22:22;7.32;;;3.75;;
20144;SDS011;10233;50.814;6.590;2022-08-21T01:23:22;8.18;;;3.88;;
20144;SDS011;10233;50.814;6.590;2022-08-21T01:24:23;7.50;;;3.73;;
20144;SDS011;10233;50.814;6.590;2022-08-21T01:25:24;7.85;;;3.30;;
20144;SDS011;10233;50.814;6.590;2022-08-21T01:26:26;8.80;;;3.63;;
20144;SDS011;10233;50.814;6.590;2022-08-21T01:27:29;9.15;;;3.83;;
20144;SDS011;10233;50.814;6.590;2022-08-21T01:28:30;7.40;;;3.60;;
20144;SDS011;10233;50.814;6.590;2022-08-21T01:30:46;7.75;;;3.80;;
20144;SDS011;10233;50.814;6.590;2022-08-21T01:31:48;5.72;;;3.97;;
20144;SDS011;10233;50.814;6.590;2022-08-21T01:32:49;9.77;;;4.00;;
20144;SDS011;10233;50.814;6.590;2022-08-21T01:33:51;8.15;;;3.60;;
20144;SDS011;10233;50.814;6.590;2022-08-21T01:34:52;9.63;;;3.75;;
20144;SDS011;10233;50.814;6.590;2022-08-21T01:35:52;7.97;;;3.58;;
20144;SDS011;10233;50.814;6.590;2022-08-21T01:36:53;5.83;;;3.60;;
20144;SDS011;10233;50.814;6.590;2022-08-21T01:37:53;4.25;;;3.30;;
20144;SDS011;10233;50.814;6.590;2022-08-21T01:38:54;8.83;;;3.30;;
20144;SDS011;10233;50.814;6.590;2022-08-21T01:39:55;9.93;;;3.95;;
20144;SDS011;10233;50.814;6.590;2022-08-21T01:40:56;8.60;;;3.85;;
20144;SDS011;10233;50.814;6.590;2022-08-21T01:41:56;7.15;;;4.32;;
20144;SDS011;10233;50.814;6.590;2022-08-21T01:42:57;8.50;;;3.93;;
20144;SDS011;10233;50.814;6.590;2022-08-21T01:43:57;6.47;;;3.70;;
20144;SDS011;10233;50.814;6.590;2022-08-21T01:44:58;9.00;;;3.67;;
20144;SDS011;10233;50.814;6.590;2022-08-21T01:45:58;9.93;;;4.35;;
20144;SDS011;10233;50.814;6.590;2022-08-21T01:47:00;8.30;;;3.80;;
20144;SDS011;10233;50.814;6.590;2022-08-21T01:48:07;6.82;;;3.90;;
20144;SDS011;10233;50.814;6.590;2022-08-21T01:49:08;6.05;;;3.72;;
20144;SDS011;10233;50.814;6.590;2022-08-21T01:50:10;9.33;;;3.93;;
20144;SDS011;10233;50.814;6.590;2022-08-21T01:51:14;7.65;;;3.90;;
20144;SDS011;10233;50.814;6.590;2022-08-21T01:52:14;9.07;;;3.70;;
20144;SDS011;10233;50.814;6.590;2022-08-21T01:53:15;7.47;;;4.10;;
20144;SDS011;10233;50.814;6.590;2022-08-21T01:54:15;9.73;;;4.20;;
20144;SDS011;10233;50.814;6.590;2022-08-21T01:55:16;10.13;;;3.92;;
20144;SDS011;10233;50.814;6.590;2022-08-21T01:56:19;10.45;;;4.25;;
20144;SDS011;10233;50.814;6.590;2022-08-21T01:57:19;9.73;;;3.85;;
20144;SDS011;10233;50.814;6.590;2022-08-21T01:58:20;6.22;;;3.70;;
20144;SDS011;10233;50.814;6.590;2022-08-21T01:59:21;7.53;;;4.03;;
20144;SDS011;10233;50.814;6.590;2022-08-21T02:00:23;5.78;;;3.90;;
20144;SDS011;10233;50.814;6.590;2022-08-21T02:01:23;7.78;;;3.83;;
20144;SDS011;10233;50.814;6.590;2022-08-21T02:02:24;7.33;;;4.00;;
20144;SDS011;10233;50.814;6.590;2022-08-21T02:03:25;8.43;;;3.90;;
20144;SDS011;10233;50.814;6.590;2022-08-21T02:04:25;6.80;;;3.65;;
20144;SDS011;10233;50.814;6.590;2022-08-21T02:05:26;5.90;;;3.77;;
20144;SDS011;10233;50.814;6.590;2022-08-21T02:06:26;9.00;;;4.07;;
20144;SDS011;10233;50.814;6.590;2022-08-21T02:07:27;9.17;;;3.73;;
20144;SDS011;10233;50.814;6.590;2022-08-21T02:08:28;8.65;;;3.90;;
20144;SDS011;10233;50.814;6.590;2022-08-21T02:09:29;6.57;;;3.80;;
20144;SDS011;10233;50.814;6.590;2022-08-21T02:10:30;10.60;;;3.97;;
20144;SDS011;10233;50.814;6.590;2022-08-21T02:11:32;8.23;;;3.92;;
20144;SDS011;10233;50.814;6.590;2022-08-21T02:12:33;6.72;;;3.70;;
20144;SDS011;10233;50.814;6.590;2022-08-21T02:13:33;8.03;;;3.80;;
20144;SDS011;10233;50.814;6.590;2022-08-21T02:14:34;7.32;;;4.00;;
20144;SDS011;10233;50.814;6.590;2022-08-21T02:15:35;7.00;;;3.90;;
20144;SDS011;10233;50.814;6.590;2022-08-21T02:16:36;7.03;;;4.18;;
20144;SDS011;10233;50.814;6.590;2022-08-21T02:17:41;7.38;;;4.05;;
20144;SDS011;10233;50.814;6.590;2022-08-21T02:18:44;6.25;;;3.78;;
20144;SDS011;10233;50.814;6.590;2022-08-21T02:19:44;8.63;;;4.00;;
20144;SDS011;10233;50.814;6.590;2022-08-21T02:20:46;5.53;;;3.80;;
20144;SDS011;10233;50.814;6.590;2022-08-21T02:21:48;9.70;;;3.90;;
20144;SDS011;10233;50.814;6.590;2022-08-21T02:22:48;9.40;;;4.10;;
20144;SDS011;10233;50.814;6.590;2022-08-21T02:23:49;5.93;;;4.03;;
20144;SDS011;10233;50.814;6.590;2022-08-21T02:24:50;10.07;;;4.30;;
20144;SDS011;10233;50.814;6.590;2022-08-21T02:25:50;8.77;;;4.10;;
20144;SDS011;10233;50.814;6.590;2022-08-21T02:26:51;8.73;;;4.10;;
20144;SDS011;10233;50.814;6.590;2022-08-21T02:27:51;8.23;;;3.90;;
20144;SDS011;10233;50.814;6.590;2022-08-21T02:29:11;8.73;;;3.92;;
20144;SDS011;10233;50.814;6.590;2022-08-21T02:30:13;10.40;;;4.30;;
20144;SDS011;10233;50.814;6.590;2022-08-21T02:31:19;7.72;;;4.15;;
20144;SDS011;10233;50.814;6.590;2022-08-21T02:32:20;8.40;;;4.10;;
20144;SDS011;10233;50.814;6.590;2022-08-21T02:33:21;7.30;;;4.03;;
20144;SDS011;10233;50.814;6.590;2022-08-21T02:34:21;9.40;;;4.22;;
20144;SDS011;10233;50.814;6.590;2022-08-21T02:35:22;9.10;;;4.20;;
20144;SDS011;10233;50.814;6.590;2022-08-21T02:36:24;7.65;;;4.15;;
20144;SDS011;10233;50.814;6.590;2022-08-21T02:37:25;9.25;;;4.38;;
20144;SDS011;10233;50.814;6.590;2022-08-21T02:38:26;8.70;;;4.30;;
20144;SDS011;10233;50.814;6.590;2022-08-21T02:39:34;8.93;;;4.20;;
20144;SDS011;10233;50.814;6.590;2022-08-21T02:40:35;8.93;;;4.03;;
20144;SDS011;10233;50.814;6.590;2022-08-21T02:41:37;8.38;;;4.45;;
20144;SDS011;10233;50.814;6.590;2022-08-21T02:42:38;8.95;;;4.00;;
20144;SDS011;10233;50.814;6.590;2022-08-21T02:43:39;7.73;;;4.17;;
20144;SDS011;10233;50.814;6.590;2022-08-21T02:44:40;9.30;;;3.97;;
20144;SDS011;10233;50.814;6.590;2022-08-21T02:45:41;6.55;;;3.90;;
20144;SDS011;10233;50.814;6.590;2022-08-21T02:46:42;10.68;;;4.75;;
20144;SDS011;10233;50.814;6.590;2022-08-21T02:47:52;6.97;;;3.70;;
20144;SDS011;10233;50.814;6.590;2022-08-21T02:48:55;8.82;;;4.10;;
20144;SDS011;10233;50.814;6.590;2022-08-21T02:49:55;10.40;;;3.83;;
20144;SDS011;10233;50.814;6.590;2022-08-21T02:51:15;5.17;;;3.50;;
20144;SDS011;10233;50.814;6.590;2022-08-21T02:52:18;7.40;;;4.13;;
20144;SDS011;10233;50.814;6.590;2022-08-21T02:53:18;6.83;;;3.67;;
20144;SDS011;10233;50.814;6.590;2022-08-21T02:54:19;6.65;;;4.05;;
20144;SDS011;10233;50.814;6.590;2022-08-21T02:55:21;7.50;;;4.10;;
20144;SDS011;10233;50.814;6.590;2022-08-21T02:56:23;9.00;;;4.00;;
20144;SDS011;10233;50.814;6.590;2022-08-21T02:57:24;7.43;;;3.83;;
20144;SDS011;10233;50.814;6.590;2022-08-21T02:58:29;6.75;;;3.67;;
20144;SDS011;10233;50.814;6.590;2022-08-21T02:59:32;8.35;;;3.78;;
20144;SDS011;10233;50.814;6.590;2022-08-21T03:00:33;6.07;;;3.60;;
20144;SDS011;10233;50.814;6.590;2022-08-21T03:01:34;6.15;;;3.83;;
20144;SDS011;10233;50.814;6.590;2022-08-21T03:02:36;8.98;;;3.72;;
20144;SDS011;10233;50.814;6.590;2022-08-21T03:03:37;7.78;;;3.95;;
20144;SDS011;10233;50.814;6.590;2022-08-21T03:04:40;9.00;;;3.53;;
20144;SDS011;10233;50.814;6.590;2022-08-21T03:05:42;5.77;;;3.60;;
20144;SDS011;10233;50.814;6.590;2022-08-21T03:06:43;6.47;;;3.80;;
20144;SDS011;10233;50.814;6.590;2022-08-21T03:07:44;12.15;;;4.10;;
20144;SDS011;10233;50.814;6.590;2022-08-21T03:08:47;8.13;;;3.70;;
20144;SDS011;10233;50.814;6.590;2022-08-21T03:09:48;5.82;;;3.70;;
20144;SDS011;10233;50.814;6.590;2022-08-21T03:10:49;5.30;;;3.73;;
20144;SDS011;10233;50.814;6.590;2022-08-21T03:11:51;10.27;;;4.22;;
20144;SDS011;10233;50.814;6.590;2022-08-21T03:12:52;8.05;;;4.07;;
20144;SDS011;10233;50.814;6.590;2022-08-21T03:13:52;8.48;;;3.50;;
20144;SDS011;10233;50.814;6.590;2022-08-21T03:14:53;9.53;;;3.60;;
20144;SDS011;10233;50.814;6.590;2022-08-21T03:15:53;6.28;;;3.45;;
20144;SDS011;10233;50.814;6.590;2022-08-21T03:16:54;11.77;;;3.95;;
20144;SDS011;10233;50.814;6.590;2022-08-21T03:17:55;11.00;;;3.80;;
20144;SDS011;10233;50.814;6.590;2022-08-21T03:18:56;8.63;;;3.70;;
20144;SDS011;10233;50.814;6.590;2022-08-21T03:19:57;7.88;;;3.95;;
20144;SDS011;10233;50.814;6.590;2022-08-21T03:20:58;8.10;;;3.90;;
20144;SDS011;10233;50.814;6.590;2022-08-21T03:21:58;7.10;;;3.90;;
20144;SDS011;10233;50.814;6.590;2022-08-21T03:23:00;8.17;;;3.83;;
20144;SDS011;10233;50.814;6.590;2022-08-21T03:24:03;8.45;;;3.53;;
20144;SDS011;10233;50.814;6.590;2022-08-21T03:25:04;8.90;;;3.92;;
20144;SDS011;10233;50.814;6.590;2022-08-21T03:26:06;7.10;;;3.65;;
20144;SDS011;10233;50.814;6.590;2022-08-21T03:27:06;8.57;;;3.33;;
20144;SDS011;10233;50.814;6.590;2022-08-21T03:28:10;6.78;;;3.65;;
20144;SDS011;10233;50.814;6.590;2022-08-21T03:29:15;6.78;;;3.70;;
20144;SDS011;10233;50.814;6.590;2022-08-21T03:30:15;5.32;;;3.40;;
20144;SDS011;10233;50.814;6.590;2022-08-21T03:31:17;8.52;;;3.95;;
20144;SDS011;10233;50.814;6.590;2022-08-21T03:32:18;6.07;;;3.78;;
20144;SDS011;10233;50.814;6.590;2022-08-21T03:33:19;9.68;;;3.90;;
20144;SDS011;10233;50.814;6.590;2022-08-21T03:34:21;7.35;;;3.60;;
20144;SDS011;10233;50.814;6.590;2022-08-21T03:35:21;6.47;;;3.45;;
20144;SDS011;10233;50.814;6.590;2022-08-21T03:36:22;6.97;;;3.30;;
20144;SDS011;10233;50.814;6.590;2022-08-21T03:37:23;8.68;;;3.75;;
20144;SDS011;10233;50.814;6.590;2022-08-21T03:38:24;6.97;;;3.60;;
20144;SDS011;10233;50.814;6.590;2022-08-21T03:39:27;6.40;;;3.70;;
20144;SDS011;10233;50.814;6.590;2022-08-21T03:40:28;7.70;;;3.47;;
20144;SDS011;10233;50.814;6.590;2022-08-21T03:41:29;7.30;;;3.50;;
20144;SDS011;10233;50.814;6.590;2022-08-21T03:42:29;6.17;;;3.43;;
20144;SDS011;10233;50.814;6.590;2022-08-21T03:43:30;7.78;;;3.78;;
20144;SDS011;10233;50.814;6.590;2022-08-21T03:44:32;7.32;;;3.42;;
20144;SDS011;10233;50.814;6.590;2022-08-21T03:45:34;5.15;;;3.50;;
20144;SDS011;10233;50.814;6.590;2022-08-21T03:46:35;7.47;;;3.58;;
20144;SDS011;10233;50.814;6.590;2022-08-21T03:47:35;9.80;;;3.57;;
20144;SDS011;10233;50.814;6.590;2022-08-21T03:48:38;8.82;;;3.63;;
20144;SDS011;10233;50.814;6.590;2022-08-21T03:49:38;7.38;;;3.80;;
20144;SDS011;10233;50.814;6.590;2022-08-21T03:50:40;6.70;;;3.65;;
20144;SDS011;10233;50.814;6.590;2022-08-21T03:51:42;10.93;;;4.07;;
20144;SDS011;10233;50.814;6.590;2022-08-21T03:52:42;7.82;;;4.03;;
20144;SDS011;10233;50.814;6.590;2022-08-21T03:53:42;6.47;;;3.77;;
20144;SDS011;10233;50.814;6.590;2022-08-21T03:54:43;6.43;;;3.40;;
20144;SDS011;10233;50.814;6.590;2022-08-21T03:55:45;9.73;;;4.05;;
20144;SDS011;10233;50.814;6.590;2022-08-21T03:56:47;8.77;;;3.92;;
20144;SDS011;10233;50.814;6.590;2022-08-21T03:57:47;9.48;;;4.28;;
20144;SDS011;10233;50.814;6.590;2022-08-21T03:58:48;6.37;;;4.07;;
20144;SDS011;10233;50.814;6.590;2022-08-21T03:59:48;7.03;;;3.77;;
20144;SDS011;10233;50.814;6.590;2022-08-21T04:00:49;7.75;;;4.13;;
20144;SDS011;10233;50.814;6.590;2022-08-21T04:01:56;6.60;;;4.03;;
20144;SDS011;10233;50.814;6.590;2022-08-21T04:02:59;6.72;;;4.18;;
20144;SDS011;10233;50.814;6.590;2022-08-21T04:04:00;6.50;;;3.58;;
20144;SDS011;10233;50.814;6.590;2022-08-21T04:05:00;7.15;;;4.03;;
20144;SDS011;10233;50.814;6.590;2022-08-21T04:06:01;7.30;;;4.40;;
20144;SDS011;10233;50.814;6.590;2022-08-21T04:07:02;12.60;;;4.75;;
20144;SDS011;10233;50.814;6.590;2022-08-21T04:08:04;9.80;;;4.95;;
20144;SDS011;10233;50.814;6.590;2022-08-21T04:09:05;11.98;;;4.90;;
20144;SDS011;10233;50.814;6.590;2022-08-21T04:10:06;12.75;;;4.72;;
20144;SDS011;10233;50.814;6.590;2022-08-21T04:11:07;9.63;;;4.88;;
20144;SDS011;10233;50.814;6.590;2022-08-21T04:12:10;10.15;;;5.10;;
20144;SDS011;10233;50.814;6.590;2022-08-21T04:13:10;9.03;;;4.50;;
20144;SDS011;10233;50.814;6.590;2022-08-21T04:14:11;8.73;;;4.63;;
20144;SDS011;10233;50.814;6.590;2022-08-21T04:15:14;9.20;;;5.37;;
20144;SDS011;10233;50.814;6.590;2022-08-21T04:16:14;9.10;;;5.00;;
20144;SDS011;10233;50.814;6.590;2022-08-21T04:17:15;8.03;;;4.40;;
20144;SDS011;10233;50.814;6.590;2022-08-21T04:18:15;6.70;;;4.50;;
20144;SDS011;10233;50.814;6.590;2022-08-21T04:19:16;12.32;;;5.00;;
20144;SDS011;10233;50.814;6.590;2022-08-21T04:20:17;10.27;;;4.97;;
20144;SDS011;10233;50.814;6.590;2022-08-21T04:21:18;7.50;;;4.68;;
20144;SDS011;10233;50.814;6.590;2022-08-21T04:22:19;6.63;;;4.23;;
20144;SDS011;10233;50.814;6.590;2022-08-21T04:23:20;8.02;;;4.32;;
20144;SDS011;10233;50.814;6.590;2022-08-21T04:24:21;10.25;;;4.68;;
20144;SDS011;10233;50.814;6.590;2022-08-21T04:25:22;9.18;;;4.22;;
20144;SDS011;10233;50.814;6.590;2022-08-21T04:26:25;10.77;;;4.13;;
20144;SDS011;10233;50.814;6.590;2022-08-21T04:27:26;9.63;;;4.10;;
20144;SDS011;10233;50.814;6.590;2022-08-21T04:28:27;9.65;;;3.70;;
20144;SDS011;10233;50.814;6.590;2022-08-21T04:29:28;7.53;;;3.80;;
20144;SDS011;10233;50.814;6.590;2022-08-21T04:30:29;6.77;;;3.43;;
20144;SDS011;10233;50.814;6.590;2022-08-21T04:31:29;6.03;;;3.90;;
20144;SDS011;10233;50.814;6.590;2022-08-21T04:32:30;8.00;;;3.40;;
20144;SDS011;10233;50.814;6.590;2022-08-21T04:33:30;7.45;;;3.72;;
20144;SDS011;10233;50.814;6.590;2022-08-21T04:34:31;6.53;;;3.50;;
20144;SDS011;10233;50.814;6.590;2022-08-21T04:35:31;6.55;;;3.50;;
20144;SDS011;10233;50.814;6.590;2022-08-21T04:36:32;7.33;;;3.50;;
20144;SDS011;10233;50.814;6.590;2022-08-21T04:37:33;8.02;;;3.70;;
20144;SDS011;10233;50.814;6.590;2022-08-21T04:38:37;8.00;;;3.65;;
20144;SDS011;10233;50.814;6.590;2022-08-21T04:39:38;7.25;;;3.75;;
20144;SDS011;10233;50.814;6.590;2022-08-21T04:40:38;6.20;;;3.30;;
20144;SDS011;10233;50.814;6.590;2022-08-21T04:41:38;7.15;;;3.42;;
20144;SDS011;10233;50.814;6.590;2022-08-21T04:42:46;5.03;;;3.27;;
20144;SDS011;10233;50.814;6.590;2022-08-21T04:43:52;6.65;;;3.20;;
20144;SDS011;10233;50.814;6.590;2022-08-21T04:44:55;8.05;;;3.35;;
20144;SDS011;10233;50.814;6.590;2022-08-21T04:45:56;6.80;;;3.05;;
20144;SDS011;10233;50.814;6.590;2022-08-21T04:46:56;7.37;;;3.43;;
20144;SDS011;10233;50.814;6.590;2022-08-21T04:47:59;5.82;;;3.50;;
20144;SDS011;10233;50.814;6.590;2022-08-21T04:49:00;6.13;;;3.00;;
20144;SDS011;10233;50.814;6.590;2022-08-21T04:50:01;8.15;;;3.35;;
20144;SDS011;10233;50.814;6.590;2022-08-21T04:52:18;5.63;;;3.40;;
20144;SDS011;10233;50.814;6.590;2022-08-21T04:53:23;4.80;;;3.42;;
20144;SDS011;10233;50.814;6.590;2022-08-21T04:54:30;5.28;;;3.10;;
20144;SDS011;10233;50.814;6.590;2022-08-21T04:55:30;5.55;;;2.97;;
20144;SDS011;10233;50.814;6.590;2022-08-21T04:56:33;6.60;;;3.20;;
20144;SDS011;10233;50.814;6.590;2022-08-21T04:57:41;5.22;;;3.13;;
20144;SDS011;10233;50.814;6.590;2022-08-21T04:58:42;7.88;;;3.67;;
20144;SDS011;10233;50.814;6.590;2022-08-21T04:59:45;6.35;;;3.63;;
20144;SDS011;10233;50.814;6.590;2022-08-21T05:00:47;5.45;;;3.15;;
20144;SDS011;10233;50.814;6.590;2022-08-21T05:01:48;7.25;;;3.20;;
20144;SDS011;10233;50.814;6.590;2022-08-21T05:02:51;5.43;;;3.10;;
20144;SDS011;10233;50.814;6.590;2022-08-21T05:03:56;5.75;;;3.20;;
20144;SDS011;10233;50.814;6.590;2022-08-21T05:04:59;5.93;;;3.53;;
20144;SDS011;10233;50.814;6.590;2022-08-21T05:06:00;4.68;;;3.40;;
20144;SDS011;10233;50.814;6.590;2022-08-21T05:07:05;9.80;;;3.60;;
20144;SDS011;10233;50.814;6.590;2022-08-21T05:08:11;7.75;;;3.40;;
20144;SDS011;10233;50.814;6.590;2022-08-21T05:09:15;9.43;;;3.72;;
20144;SDS011;10233;50.814;6.590;2022-08-21T05:10:18;10.15;;;3.42;;
20144;SDS011;10233;50.814;6.590;2022-08-21T05:11:19;6.38;;;3.40;;
20144;SDS011;10233;50.814;6.590;2022-08-21T05:12:22;8.75;;;3.42;;
20144;SDS011;10233;50.814;6.590;2022-08-21T05:13:22;6.37;;;3.57;;
20144;SDS011;10233;50.814;6.590;2022-08-21T05:14:23;6.90;;;4.07;;
20144;SDS011;10233;50.814;6.590;2022-08-21T05:15:26;7.78;;;3.38;;
20144;SDS011;10233;50.814;6.590;2022-08-21T05:16:27;8.57;;;3.80;;
20144;SDS011;10233;50.814;6.590;2022-08-21T05:17:28;6.05;;;3.85;;
20144;SDS011;10233;50.814;6.590;2022-08-21T05:18:29;8.60;;;4.28;;
20144;SDS011;10233;50.814;6.590;2022-08-21T05:19:29;7.13;;;3.77;;
20144;SDS011;10233;50.814;6.590;2022-08-21T05:20:30;8.17;;;4.37;;
20144;SDS011;10233;50.814;6.590;2022-08-21T05:21:30;8.70;;;4.32;;
20144;SDS011;10233;50.814;6.590;2022-08-21T05:22:31;7.47;;;4.03;;
20144;SDS011;10233;50.814;6.590;2022-08-21T05:23:31;7.47;;;4.00;;
20144;SDS011;10233;50.814;6.590;2022-08-21T05:24:32;9.38;;;4.40;;
20144;SDS011;10233;50.814;6.590;2022-08-21T05:25:33;7.55;;;4.57;;
20144;SDS011;10233;50.814;6.590;2022-08-21T05:26:34;8.87;;;4.20;;
20144;SDS011;10233;50.814;6.590;2022-08-21T05:27:36;9.77;;;4.43;;
20144;SDS011;10233;50.814;6.590;2022-08-21T05:28:38;7.50;;;4.20;;
20144;SDS011;10233;50.814;6.590;2022-08-21T05:29:39;9.57;;;4.47;;
20144;SDS011;10233;50.814;6.590;2022-08-21T05:30:39;8.90;;;4.60;;
20144;SDS011;10233;50.814;6.590;2022-08-21T05:31:40;7.80;;;4.25;;
20144;SDS011;10233;50.814;6.590;2022-08-21T05:32:41;11.55;;;4.53;;
20144;SDS011;10233;50.814;6.590;2022-08-21T05:33:42;9.10;;;4.80;;
20144;SDS011;10233;50.814;6.590;2022-08-21T05:34:42;8.83;;;4.10;;
20144;SDS011;10233;50.814;6.590;2022-08-21T05:35:43;10.18;;;4.30;;
20144;SDS011;10233;50.814;6.590;2022-08-21T05:36:44;8.63;;;3.73;;
20144;SDS011;10233;50.814;6.590;2022-08-21T05:37:44;6.78;;;3.50;;
20144;SDS011;10233;50.814;6.590;2022-08-21T05:38:46;7.80;;;4.05;;
20144;SDS011;10233;50.814;6.590;2022-08-21T05:39:46;7.15;;;3.78;;
20144;SDS011;10233;50.814;6.590;2022-08-21T05:40:47;7.33;;;3.77;;
20144;SDS011;10233;50.814;6.590;2022-08-21T05:41:47;8.07;;;3.85;;
20144;SDS011;10233;50.814;6.590;2022-08-21T05:42:52;6.78;;;4.00;;
20144;SDS011;10233;50.814;6.590;2022-08-21T05:43:54;6.38;;;3.92;;
20144;SDS011;10233;50.814;6.590;2022-08-21T05:44:55;7.43;;;3.37;;
20144;SDS011;10233;50.814;6.590;2022-08-21T05:45:55;7.17;;;3.77;;
20144;SDS011;10233;50.814;6.590;2022-08-21T05:46:55;5.38;;;3.55;;
20144;SDS011;10233;50.814;6.590;2022-08-21T05:48:10;6.30;;;3.53;;
20144;SDS011;10233;50.814;6.590;2022-08-21T05:49:12;7.43;;;3.42;;
20144;SDS011;10233;50.814;6.590;2022-08-21T05:50:13;6.45;;;3.60;;
20144;SDS011;10233;50.814;6.590;2022-08-21T05:51:14;8.23;;;3.40;;
20144;SDS011;10233;50.814;6.590;2022-08-21T05:52:21;6.55;;;3.42;;
20144;SDS011;10233;50.814;6.590;2022-08-21T05:53:23;10.15;;;3.40;;
20144;SDS011;10233;50.814;6.590;2022-08-21T05:54:24;6.40;;;3.28;;
20144;SDS011;10233;50.814;6.590;2022-08-21T05:55:25;5.77;;;2.87;;
20144;SDS011;10233;50.814;6.590;2022-08-21T05:56:25;4.72;;;2.97;;
20144;SDS011;10233;50.814;6.590;2022-08-21T05:57:26;7.20;;;3.47;;
20144;SDS011;10233;50.814;6.590;2022-08-21T05:58:27;7.60;;;3.17;;
20144;SDS011;10233;50.814;6.590;2022-08-21T05:59:27;4.85;;;3.20;;
20144;SDS011;10233;50.814;6.590;2022-08-21T06:00:28;6.47;;;3.00;;
20144;SDS011;10233;50.814;6.590;2022-08-21T06:01:29;7.35;;;3.17;;
20144;SDS011;10233;50.814;6.590;2022-08-21T06:02:29;6.63;;;3.20;;
20144;SDS011;10233;50.814;6.590;2022-08-21T06:03:32;7.03;;;2.80;;
20144;SDS011;10233;50.814;6.590;2022-08-21T06:04:36;5.55;;;2.95;;
20144;SDS011;10233;50.814;6.590;2022-08-21T06:05:37;4.32;;;2.78;;
20144;SDS011;10233;50.814;6.590;2022-08-21T06:06:38;8.18;;;2.92;;
20144;SDS011;10233;50.814;6.590;2022-08-21T06:07:39;4.60;;;2.70;;
20144;SDS011;10233;50.814;6.590;2022-08-21T06:08:39;5.75;;;2.70;;
20144;SDS011;10233;50.814;6.590;2022-08-21T06:09:40;6.87;;;2.83;;
20144;SDS011;10233;50.814;6.590;2022-08-21T06:10:40;5.63;;;2.63;;
20144;SDS011;10233;50.814;6.590;2022-08-21T06:11:41;5.17;;;2.70;;
20144;SDS011;10233;50.814;6.590;2022-08-21T06:12:41;6.18;;;2.75;;
20144;SDS011;10233;50.814;6.590;2022-08-21T06:13:42;3.60;;;2.63;;